Time;durP1;ratioP1;P1;durP2;ratioP2;P2;SDS_P1;SDS_P2;PMS_P1;PMS_P2;Temp;Humidity;BMP_temperature;BMP_pressure;BME280_temperature;BME280_humidity;BME280_pressure;Samples;Min_cycle;Max_cycle;Signal;HPM_P1;HPM_P2
2021/10/22 00:02:25;;;;;;;;;;;8.60;99.90;;;;;;1865398;75;20219;-70
2021/10/22 00:04:52;;;;;;;;;;;8.80;99.90;;;;;;1866840;75;20209;-70
2021/10/22 00:07:19;;;;;;;;;;;8.70;99.90;;;;;;1863913;76;20227;-70
2021/10/22 00:09:46;;;;;;;;;;;8.60;99.90;;;;;;1869328;75;20218;-70
2021/10/22 00:12:13;;;;;;;;;;;8.70;99.90;;;;;;1866799;76;20215;-70
2021/10/22 00:14:40;;;;;;;;;;;8.70;99.90;;;;;;1866091;76;20175;-70
2021/10/22 00:17:08;;;;;;;;;;;8.70;99.90;;;;;;1859869;76;20135;-69
2021/10/22 00:19:35;;;;;;;;;;;8.80;99.90;;;;;;1868124;75;20329;-69
2021/10/22 00:22:03;;;;;;;;;;;8.90;99.90;;;;;;1862105;76;20168;-71
2021/10/22 00:24:30;;;;;;;;;;;8.80;99.90;;;;;;1864680;75;20174;-70
2021/10/22 00:26:57;;;;;;;;;;;8.70;99.90;;;;;;1865158;75;20113;-70
2021/10/22 00:29:24;;;;;;;;;;;8.70;99.90;;;;;;1870154;76;20130;-71
2021/10/22 00:31:51;;;;;;;;;;;8.80;99.90;;;;;;1866789;75;20221;-70
2021/10/22 00:34:18;;;;;;;;;;;8.70;99.90;;;;;;1865950;76;20166;-70
2021/10/22 00:36:45;;;;;;;;;;;8.70;99.90;;;;;;1865438;75;20127;-71
2021/10/22 00:39:12;;;;;;;;;;;8.60;99.90;;;;;;1864481;76;20183;-71
2021/10/22 00:41:40;;;;;;;;;;;8.60;99.90;;;;;;1865236;76;20221;-70
2021/10/22 00:44:07;;;;;;;;;;;8.60;99.90;;;;;;1867444;76;20167;-70
2021/10/22 00:46:37;;;;;;;;;;;8.70;99.90;;;;;;1868663;75;20179;-71
2021/10/22 00:49:03;;;;;;;;;;;8.70;99.90;;;;;;1865173;76;20133;-71
2021/10/22 00:51:29;;;;;;;;;;;8.70;99.90;;;;;;1866645;75;20497;-70
2021/10/22 00:53:56;;;;;;;;;;;8.80;99.90;;;;;;1866940;76;20193;-71
2021/10/22 00:56:24;;;;;;;;;;;8.70;99.90;;;;;;1868553;75;20187;-70
2021/10/22 00:58:51;;;;;;;;;;;8.60;99.90;;;;;;1869700;75;20185;-69
2021/10/22 01:01:18;;;;;;;;;;;8.70;99.90;;;;;;1869021;76;20164;-70
2021/10/22 01:03:45;;;;;;;;;;;8.70;99.90;;;;;;1865779;76;20182;-71
2021/10/22 01:06:11;;;;;;;;;;;8.80;99.90;;;;;;1862006;76;20242;-70
2021/10/22 01:08:38;;;;;;;;;;;8.70;99.90;;;;;;1873917;75;20213;-70
2021/10/22 01:11:05;;;;;;;;;;;8.80;99.90;;;;;;1867522;76;20163;-71
2021/10/22 01:13:32;;;;;;;;;;;8.80;99.90;;;;;;1864765;76;20125;-70
2021/10/22 01:15:59;;;;;;;;;;;8.70;99.90;;;;;;1868327;76;20213;-71
2021/10/22 01:18:27;;;;;;;;;;;8.80;99.90;;;;;;1871789;75;20224;-70
2021/10/22 01:21:00;;;;;;;;;;;8.70;99.90;;;;;;1868177;76;20406;-70
2021/10/22 01:23:27;;;;;;;;;;;8.60;99.90;;;;;;1871807;75;20211;-73
2021/10/22 01:25:54;;;;;;;;;;;8.60;99.90;;;;;;1869875;76;20383;-73
2021/10/22 01:28:21;;;;;;;;;;;8.70;99.90;;;;;;1865474;76;20227;-71
2021/10/22 01:30:48;;;;;;;;;;;8.80;99.90;;;;;;1864822;76;20161;-71
2021/10/22 01:33:20;;;;;;;;;;;8.80;99.90;;;;;;1865008;75;20171;-70
2021/10/22 01:35:47;;;;;;;;;;;8.90;99.90;;;;;;1865493;76;20199;-70
2021/10/22 01:38:15;;;;;;;;;;;8.90;99.90;;;;;;1869577;75;20130;-71
2021/10/22 01:40:42;;;;;;;;;;;8.80;99.90;;;;;;1867888;76;20159;-70
2021/10/22 01:43:09;;;;;;;;;;;8.80;99.90;;;;;;1865907;76;20185;-70
2021/10/22 01:45:36;;;;;;;;;;;8.90;99.90;;;;;;1870541;75;20237;-71
2021/10/22 01:48:03;;;;;;;;;;;8.90;99.90;;;;;;1867555;76;20507;-70
2021/10/22 01:50:31;;;;;;;;;;;8.80;99.90;;;;;;1865244;76;20247;-70
2021/10/22 01:52:58;;;;;;;;;;;8.80;99.90;;;;;;1866211;76;20169;-70
2021/10/22 01:55:25;;;;;;;;;;;8.80;99.90;;;;;;1866896;75;20123;-70
2021/10/22 01:57:51;;;;;;;;;;;8.90;99.90;;;;;;1862217;76;20496;-70
2021/10/22 02:00:18;;;;;;;;;;;8.90;99.90;;;;;;1868819;76;20187;-73
2021/10/22 02:02:45;;;;;;;;;;;8.80;99.90;;;;;;1869033;76;20148;-69
2021/10/22 02:05:12;;;;;;;;;;;8.80;99.90;;;;;;1867678;75;20194;-71
2021/10/22 02:07:39;;;;;;;;;;;8.90;99.90;;;;;;1864638;75;20204;-71
2021/10/22 02:10:06;;;;;;;;;;;8.80;99.90;;;;;;1864909;76;20241;-71
2021/10/22 02:12:33;;;;;;;;;;;8.70;99.90;;;;;;1866429;76;20124;-70
2021/10/22 02:15:00;;;;;;;;;;;8.90;99.90;;;;;;1865758;75;20172;-71
2021/10/22 02:17:27;;;;;;;;;;;8.70;99.90;;;;;;1868349;76;20448;-71
2021/10/22 02:19:54;;;;;;;;;;;8.70;99.90;;;;;;1870463;75;20175;-73
2021/10/22 02:22:20;;;;;;;;;;;8.80;99.90;;;;;;1865652;76;20246;-74
2021/10/22 02:24:47;;;;;;;;;;;8.70;99.90;;;;;;1865978;75;20391;-71
2021/10/22 02:27:14;;;;;;;;;;;8.80;99.90;;;;;;1863538;75;20180;-71
2021/10/22 02:29:41;;;;;;;;;;;8.80;99.90;;;;;;1865198;76;20476;-71
2021/10/22 02:32:08;;;;;;;;;;;8.90;99.90;;;;;;1867804;76;20229;-73
2021/10/22 02:34:35;;;;;;;;;;;8.80;99.90;;;;;;1868326;75;20206;-72
2021/10/22 02:37:01;;;;;;;;;;;8.80;99.90;;;;;;1864656;76;20393;-73
2021/10/22 02:39:32;;;;;;;;;;;8.80;99.90;;;;;;1866295;76;20211;-72
2021/10/22 02:41:56;;;;;;;;;;;8.70;99.90;;;;;;1864267;75;20198;-73
2021/10/22 02:44:23;;;;;;;;;;;8.90;99.90;;;;;;1866983;76;20109;-73
2021/10/22 02:46:50;;;;;;;;;;;8.90;99.90;;;;;;1872538;76;20825;-70
2021/10/22 02:49:17;;;;;;;;;;;8.90;99.90;;;;;;1866875;76;20197;-70
2021/10/22 02:51:44;;;;;;;;;;;8.70;99.90;;;;;;1865752;76;20396;-72
2021/10/22 02:54:10;;;;;;;;;;;8.60;99.90;;;;;;1870223;75;20203;-73
2021/10/22 02:56:37;;;;;;;;;;;8.70;99.90;;;;;;1865139;75;20176;-72
2021/10/22 02:59:04;;;;;;;;;;;8.70;99.90;;;;;;1867688;76;20434;-70
2021/10/22 03:01:31;;;;;;;;;;;8.60;99.90;;;;;;1865866;76;20235;-70
2021/10/22 03:03:58;;;;;;;;;;;8.60;99.90;;;;;;1869330;75;20221;-70
2021/10/22 03:06:25;;;;;;;;;;;8.60;99.90;;;;;;1867368;76;20937;-70
2021/10/22 03:08:52;;;;;;;;;;;8.50;99.90;;;;;;1864252;76;20662;-70
2021/10/22 03:11:19;;;;;;;;;;;8.50;99.90;;;;;;1865310;76;20239;-73
2021/10/22 03:13:46;;;;;;;;;;;8.50;99.90;;;;;;1867154;75;20181;-73
2021/10/22 03:16:13;;;;;;;;;;;8.60;99.90;;;;;;1866805;75;20154;-73
2021/10/22 03:18:40;;;;;;;;;;;8.50;99.90;;;;;;1865981;75;20132;-73
2021/10/22 03:21:07;;;;;;;;;;;8.50;99.90;;;;;;1866881;76;20286;-73
2021/10/22 03:23:34;;;;;;;;;;;8.60;99.90;;;;;;1867700;76;20204;-71
2021/10/22 03:26:01;;;;;;;;;;;8.60;99.90;;;;;;1870022;75;20251;-71
2021/10/22 03:28:28;;;;;;;;;;;8.60;99.90;;;;;;1865035;76;20218;-70
2021/10/22 03:30:55;;;;;;;;;;;8.50;99.90;;;;;;1869279;75;20407;-70
2021/10/22 03:33:22;;;;;;;;;;;8.50;99.90;;;;;;1866864;75;20172;-70
2021/10/22 03:35:49;;;;;;;;;;;8.50;99.90;;;;;;1860792;76;20225;-73
2021/10/22 03:38:16;;;;;;;;;;;8.50;99.90;;;;;;1862421;76;20571;-70
2021/10/22 03:40:42;;;;;;;;;;;8.50;99.90;;;;;;1869164;75;20204;-70
2021/10/22 03:43:09;;;;;;;;;;;8.50;99.90;;;;;;1865044;76;20123;-70
2021/10/22 03:45:36;;;;;;;;;;;8.40;99.90;;;;;;1867899;76;20619;-70
2021/10/22 03:48:03;;;;;;;;;;;8.50;99.90;;;;;;1862656;76;20227;-73
2021/10/22 03:50:30;;;;;;;;;;;8.50;99.90;;;;;;1867860;75;20156;-69
2021/10/22 03:52:56;;;;;;;;;;;8.40;99.90;;;;;;1867735;76;20584;-70
2021/10/22 03:55:23;;;;;;;;;;;8.40;99.90;;;;;;1863466;76;20132;-70
2021/10/22 03:57:50;;;;;;;;;;;8.50;99.90;;;;;;1862904;76;20584;-69
2021/10/22 04:00:17;;;;;;;;;;;8.50;99.90;;;;;;1867122;76;20451;-70
2021/10/22 04:02:45;;;;;;;;;;;8.60;99.90;;;;;;1866024;75;21036;-73
2021/10/22 04:05:12;;;;;;;;;;;8.60;99.90;;;;;;1867176;75;20131;-73
2021/10/22 04:07:39;;;;;;;;;;;8.40;99.90;;;;;;1865584;75;20200;-70
2021/10/22 04:10:07;;;;;;;;;;;8.50;99.90;;;;;;1861440;76;20112;-69
2021/10/22 04:12:34;;;;;;;;;;;8.40;99.90;;;;;;1862580;76;20199;-69
2021/10/22 04:15:01;;;;;;;;;;;8.50;99.90;;;;;;1867440;75;20183;-70
2021/10/22 04:17:28;;;;;;;;;;;8.60;99.90;;;;;;1870448;75;20234;-70
2021/10/22 04:19:54;;;;;;;;;;;8.60;99.90;;;;;;1870123;75;20176;-72
2021/10/22 04:22:21;;;;;;;;;;;8.60;99.90;;;;;;1867056;73;20125;-75
2021/10/22 04:24:48;;;;;;;;;;;8.60;99.90;;;;;;1879486;75;20128;-75
2021/10/22 04:27:15;;;;;;;;;;;8.70;99.90;;;;;;1883654;74;20216;-75
2021/10/22 04:29:43;;;;;;;;;;;8.70;99.90;;;;;;1880578;76;20221;-75
2021/10/22 04:32:10;;;;;;;;;;;8.80;99.90;;;;;;1880627;76;20204;-75
2021/10/22 04:34:37;;;;;;;;;;;8.70;99.90;;;;;;1871291;75;20206;-74
2021/10/22 04:37:24;;;;;;;;;;;8.80;99.90;;;;;;1872256;76;20156;-74
2021/10/22 04:42:20;;;;;;;;;;;8.80;99.90;;;;;;1870626;76;20503;-75
2021/10/22 04:44:46;;;;;;;;;;;8.70;99.90;;;;;;1871218;75;20117;-75
2021/10/22 04:47:13;;;;;;;;;;;8.70;99.90;;;;;;1871364;76;20511;-75
2021/10/22 04:49:43;;;;;;;;;;;8.70;99.90;;;;;;1870114;75;20167;-75
2021/10/22 04:52:09;;;;;;;;;;;8.80;99.90;;;;;;1871265;76;20169;-75
2021/10/22 04:54:35;;;;;;;;;;;8.80;99.90;;;;;;1873606;76;20165;-75
2021/10/22 04:57:02;;;;;;;;;;;8.80;99.90;;;;;;1875521;76;20442;-75
2021/10/22 04:59:29;;;;;;;;;;;8.80;99.90;;;;;;1875929;75;20274;-75
2021/10/22 05:01:56;;;;;;;;;;;8.90;99.90;;;;;;1869043;76;20179;-75
2021/10/22 05:04:23;;;;;;;;;;;8.90;99.90;;;;;;1872116;76;20167;-75
2021/10/22 05:06:49;;;;;;;;;;;8.80;99.90;;;;;;1872464;76;20213;-74
2021/10/22 05:09:16;;;;;;;;;;;8.80;99.90;;;;;;1874344;75;20200;-74
2021/10/22 05:11:43;;;;;;;;;;;8.80;99.90;;;;;;1876003;75;20479;-74
2021/10/22 05:14:10;;;;;;;;;;;8.80;99.90;;;;;;1870057;76;20162;-74
2021/10/22 05:16:37;;;;;;;;;;;8.80;99.90;;;;;;1873485;76;20227;-75
2021/10/22 05:19:04;;;;;;;;;;;8.80;99.90;;;;;;1875190;76;20492;-74
2021/10/22 05:21:31;;;;;;;;;;;8.90;99.90;;;;;;1872677;75;20257;-74
2021/10/22 05:23:57;;;;;;;;;;;8.90;99.90;;;;;;1875636;76;20120;-74
2021/10/22 05:26:24;;;;;;;;;;;8.90;99.90;;;;;;1876355;76;20186;-75
2021/10/22 05:28:51;;;;;;;;;;;8.80;99.90;;;;;;1874164;76;20110;-75
2021/10/22 05:31:18;;;;;;;;;;;8.90;99.90;;;;;;1877976;75;20348;-74
2021/10/22 05:33:45;;;;;;;;;;;8.90;99.90;;;;;;1872007;75;20406;-75
2021/10/22 05:36:11;;;;;;;;;;;8.80;99.90;;;;;;1874991;76;20132;-75
2021/10/22 05:38:38;;;;;;;;;;;8.80;99.90;;;;;;1873501;76;20163;-74
2021/10/22 05:41:05;;;;;;;;;;;8.80;99.90;;;;;;1873427;75;20437;-74
2021/10/22 05:43:32;;;;;;;;;;;8.90;99.90;;;;;;1874434;76;20161;-75
2021/10/22 05:45:59;;;;;;;;;;;8.90;99.90;;;;;;1875539;76;20181;-75
2021/10/22 05:48:25;;;;;;;;;;;8.80;99.90;;;;;;1873012;76;20475;-75
2021/10/22 05:50:52;;;;;;;;;;;8.80;99.90;;;;;;1877040;75;20227;-74
2021/10/22 05:53:19;;;;;;;;;;;8.80;99.90;;;;;;1875326;76;20634;-73
2021/10/22 05:55:46;;;;;;;;;;;8.90;99.90;;;;;;1871699;76;20532;-73
2021/10/22 05:58:12;;;;;;;;;;;8.90;99.90;;;;;;1875351;76;20238;-73
2021/10/22 06:00:41;;;;;;;;;;;8.90;99.90;;;;;;1875137;75;20209;-73
2021/10/22 06:03:08;;;;;;;;;;;8.90;99.90;;;;;;1875937;75;20470;-73
2021/10/22 06:05:34;;;;;;;;;;;8.90;99.90;;;;;;1871266;75;20178;-73
2021/10/22 06:08:01;;;;;;;;;;;8.90;99.90;;;;;;1875648;76;20179;-73
2021/10/22 06:10:28;;;;;;;;;;;8.80;99.90;;;;;;1871598;76;20238;-77
2021/10/22 06:12:55;;;;;;;;;;;8.90;99.90;;;;;;1873114;76;20238;-73
2021/10/22 06:15:22;;;;;;;;;;;8.90;99.90;;;;;;1873169;75;20263;-73
2021/10/22 06:17:51;;;;;;;;;;;8.90;99.90;;;;;;1873255;76;20150;-73
2021/10/22 06:20:26;;;;;;;;;;;8.90;99.90;;;;;;1872192;76;20213;-73
2021/10/22 06:23:53;;;;;;;;;;;8.90;99.90;;;;;;1870870;75;20175;-76
2021/10/22 06:25:20;;;;;;;;;;;8.80;99.90;;;;;;1873644;75;20215;-72
2021/10/22 06:27:50;;;;;;;;;;;8.90;99.90;;;;;;1873460;76;20187;-71
2021/10/22 06:30:16;;;;;;;;;;;8.80;99.90;;;;;;1875155;76;20481;-72
2021/10/22 06:32:43;;;;;;;;;;;8.80;99.90;;;;;;1876627;76;20113;-73
2021/10/22 06:35:10;;;;;;;;;;;8.90;99.90;;;;;;1877114;75;20292;-72
2021/10/22 06:37:37;;;;;;;;;;;8.90;99.90;;;;;;1874254;76;20182;-72
2021/10/22 06:40:04;;;;;;;;;;;8.90;99.90;;;;;;1874016;75;20175;-72
2021/10/22 06:42:31;;;;;;;;;;;8.80;99.90;;;;;;1874014;75;20316;-72
2021/10/22 06:44:58;;;;;;;;;;;8.80;99.90;;;;;;1877046;76;20129;-72
2021/10/22 06:47:24;;;;;;;;;;;8.90;99.90;;;;;;1874405;75;20159;-72
2021/10/22 06:49:51;;;;;;;;;;;8.90;99.90;;;;;;1878033;75;20163;-72
2021/10/22 06:52:18;;;;;;;;;;;8.90;99.90;;;;;;1875320;75;20168;-72
2021/10/22 06:54:45;;;;;;;;;;;8.90;99.90;;;;;;1877499;76;20156;-72
2021/10/22 06:57:12;;;;;;;;;;;8.90;99.90;;;;;;1879605;75;20120;-72
2021/10/22 06:59:38;;;;;;;;;;;8.90;99.90;;;;;;1877313;76;20499;-71
2021/10/22 07:02:06;;;;;;;;;;;9.00;99.90;;;;;;1874222;75;20155;-72
2021/10/22 07:04:33;;;;;;;;;;;9.00;99.90;;;;;;1873941;76;20164;-72
2021/10/22 07:07:15;;;;;;;;;;;9.00;99.90;;;;;;1879553;75;20164;-72
2021/10/22 07:09:45;;;;;;;;;;;9.00;99.90;;;;;;1871272;76;20118;-72
2021/10/22 07:12:12;;;;;;;;;;;9.10;99.90;;;;;;1875148;76;20130;-72
2021/10/22 07:14:48;;;;;;;;;;;9.10;99.90;;;;;;1876701;75;20439;-72
2021/10/22 07:17:08;;;;;;;;;;;9.10;99.90;;;;;;1870815;76;20167;-72
2021/10/22 07:19:36;;;;;;;;;;;9.00;99.90;;;;;;1871565;75;20169;-71
2021/10/22 07:22:12;;;;;;;;;;;9.10;99.90;;;;;;1877046;76;20171;-72
2021/10/22 07:24:34;;;;;;;;;;;9.00;99.90;;;;;;1875084;76;20394;-71
2021/10/22 07:27:01;;;;;;;;;;;9.10;99.90;;;;;;1876763;75;20662;-72
2021/10/22 07:29:28;;;;;;;;;;;9.10;99.90;;;;;;1874437;76;20159;-72
2021/10/22 07:31:55;;;;;;;;;;;9.20;99.90;;;;;;1876625;75;20207;-72
2021/10/22 07:34:22;;;;;;;;;;;9.20;99.90;;;;;;1878928;75;20547;-72
2021/10/22 07:36:50;;;;;;;;;;;9.20;99.90;;;;;;1867566;75;20193;-72
2021/10/22 07:39:18;;;;;;;;;;;9.10;99.90;;;;;;1875053;76;20204;-72
2021/10/22 07:41:45;;;;;;;;;;;9.10;99.90;;;;;;1875107;76;20173;-71
2021/10/22 07:44:13;;;;;;;;;;;9.20;99.90;;;;;;1872335;76;20150;-72
2021/10/22 07:46:42;;;;;;;;;;;9.10;99.90;;;;;;1874245;75;20175;-71
2021/10/22 07:49:09;;;;;;;;;;;9.20;99.90;;;;;;1876257;76;20120;-71
2021/10/22 07:51:35;;;;;;;;;;;9.20;99.90;;;;;;1875388;76;20195;-71
2021/10/22 07:54:02;;;;;;;;;;;9.30;99.90;;;;;;1874728;76;20127;-71
2021/10/22 07:56:29;;;;;;;;;;;9.30;99.90;;;;;;1873022;75;20182;-72
2021/10/22 07:58:56;;;;;;;;;;;9.40;99.90;;;;;;1875808;76;20532;-72
2021/10/22 08:01:23;;;;;;;;;;;9.40;99.90;;;;;;1873398;76;20444;-71
2021/10/22 08:03:50;;;;;;;;;;;9.50;99.90;;;;;;1875756;76;20151;-72
2021/10/22 08:06:17;;;;;;;;;;;9.60;99.90;;;;;;1872868;75;20469;-72
2021/10/22 08:08:47;;;;;;;;;;;9.50;99.90;;;;;;1877052;76;20126;-72
2021/10/22 08:11:15;;;;;;;;;;;9.50;99.90;;;;;;1872137;75;20157;-71
2021/10/22 08:13:42;;;;;;;;;;;9.60;99.90;;;;;;1877506;75;20454;-72
2021/10/22 08:16:09;;;;;;;;;;;9.60;99.90;;;;;;1871988;76;20165;-72
2021/10/22 08:18:38;;;;;;;;;;;9.60;99.90;;;;;;1876110;76;20120;-72
2021/10/22 08:21:22;;;;;;;;;;;9.60;99.90;;;;;;1870395;76;20481;-72
2021/10/22 08:23:49;;;;;;;;;;;9.60;99.90;;;;;;1884333;75;20646;-71
2021/10/22 08:26:18;;;;;;;;;;;9.40;99.90;;;;;;1875280;76;20505;-72
2021/10/22 08:28:46;;;;;;;;;;;9.40;99.90;;;;;;1875769;75;20206;-72
2021/10/22 08:31:13;;;;;;;;;;;9.40;99.90;;;;;;1877380;76;20182;-72
2021/10/22 08:33:40;;;;;;;;;;;9.40;99.90;;;;;;1875079;76;20398;-71
2021/10/22 08:36:07;;;;;;;;;;;9.40;99.90;;;;;;1878822;75;20180;-71
2021/10/22 08:38:35;;;;;;;;;;;9.50;99.90;;;;;;1875755;76;20126;-72
2021/10/22 08:41:03;;;;;;;;;;;9.50;99.90;;;;;;1876272;75;20128;-72
2021/10/22 08:43:30;;;;;;;;;;;9.40;99.90;;;;;;1874243;76;20167;-72
2021/10/22 08:45:58;;;;;;;;;;;9.40;99.90;;;;;;1875438;75;20488;-72
2021/10/22 08:48:25;;;;;;;;;;;9.50;99.90;;;;;;1876346;75;20193;-72
2021/10/22 08:50:53;;;;;;;;;;;9.50;99.90;;;;;;1874254;76;20149;-72
2021/10/22 08:53:20;;;;;;;;;;;9.60;99.90;;;;;;1876266;75;20197;-72
2021/10/22 08:55:47;;;;;;;;;;;9.70;99.90;;;;;;1875507;76;20205;-72
2021/10/22 08:58:18;;;;;;;;;;;9.60;99.90;;;;;;1872851;75;20129;-72
2021/10/22 09:00:42;;;;;;;;;;;9.70;99.90;;;;;;1872470;76;20128;-72
2021/10/22 09:03:14;;;;;;;;;;;9.70;99.90;;;;;;1876519;76;20168;-72
2021/10/22 09:05:57;;;;;;;;;;;9.70;99.90;;;;;;1902053;75;20266;-72
2021/10/22 09:08:27;;;;;;;;;;;9.70;99.90;;;;;;1884088;76;20185;-72
2021/10/22 09:10:54;;;;;;;;;;;9.70;99.90;;;;;;1886082;76;20130;-72
2021/10/22 09:13:22;;;;;;;;;;;9.70;99.90;;;;;;1883027;76;20336;-72
2021/10/22 09:15:49;;;;;;;;;;;9.80;99.90;;;;;;1883928;76;20210;-72
2021/10/22 09:18:17;;;;;;;;;;;9.80;99.90;;;;;;1885758;76;20174;-72
2021/10/22 09:20:48;;;;;;;;;;;9.80;99.90;;;;;;1886373;76;20263;-72
2021/10/22 09:23:18;;;;;;;;;;;9.90;99.90;;;;;;1886718;76;20184;-72
2021/10/22 09:25:44;;;;;;;;;;;10.00;99.90;;;;;;1880692;76;20126;-72
2021/10/22 09:28:12;;;;;;;;;;;10.10;99.90;;;;;;1887009;76;20311;-72
2021/10/22 09:30:45;;;;;;;;;;;10.10;99.90;;;;;;1886440;76;20136;-72
2021/10/22 09:33:12;;;;;;;;;;;10.10;99.90;;;;;;1865009;76;20492;-72
2021/10/22 09:35:44;;;;;;;;;;;10.00;99.90;;;;;;1880895;76;20392;-71
2021/10/22 09:38:11;;;;;;;;;;;10.00;99.90;;;;;;1879586;76;20158;-72
2021/10/22 09:40:39;;;;;;;;;;;10.00;99.90;;;;;;1884892;76;20166;-72
2021/10/22 09:43:13;;;;;;;;;;;9.90;99.90;;;;;;1881282;76;20185;-71
2021/10/22 09:45:40;;;;;;;;;;;9.80;99.90;;;;;;1882769;76;20192;-71
2021/10/22 09:48:08;;;;;;;;;;;9.70;99.90;;;;;;1884702;76;20142;-71
2021/10/22 09:50:35;;;;;;;;;;;9.70;99.90;;;;;;1883188;76;20241;-72
2021/10/22 09:53:03;;;;;;;;;;;9.70;99.90;;;;;;1883788;76;20181;-72
2021/10/22 09:55:30;;;;;;;;;;;9.60;99.90;;;;;;1879395;76;20473;-71
2021/10/22 09:58:06;;;;;;;;;;;9.60;99.90;;;;;;1871969;75;20171;-74
2021/10/22 10:00:36;;;;;;;;;;;9.70;99.90;;;;;;1884806;76;20111;-74
2021/10/22 10:03:03;;;;;;;;;;;9.70;99.90;;;;;;1865888;75;20173;-73
2021/10/22 10:05:30;;;;;;;;;;;9.70;99.90;;;;;;1885598;76;20099;-73
2021/10/22 10:07:58;;;;;;;;;;;9.70;99.90;;;;;;1885880;76;20237;-72
2021/10/22 10:10:25;;;;;;;;;;;9.60;99.90;;;;;;1880274;76;20190;-72
2021/10/22 10:12:52;;;;;;;;;;;9.70;99.90;;;;;;1885948;76;20459;-73
2021/10/22 10:15:19;;;;;;;;;;;9.70;99.90;;;;;;1883186;76;20628;-72
2021/10/22 10:17:46;;;;;;;;;;;9.70;99.90;;;;;;1884577;76;20159;-73
2021/10/22 10:20:18;;;;;;;;;;;9.70;99.90;;;;;;1902424;75;20200;-73
2021/10/22 10:22:44;;;;;;;;;;;9.70;99.90;;;;;;1885311;76;20191;-72
2021/10/22 10:25:12;;;;;;;;;;;9.60;99.90;;;;;;1882634;76;20312;-72
2021/10/22 10:27:44;;;;;;;;;;;9.60;99.90;;;;;;1884482;76;20122;-73
2021/10/22 10:30:13;;;;;;;;;;;9.70;99.90;;;;;;1880184;76;20163;-72
2021/10/22 10:32:41;;;;;;;;;;;9.60;99.90;;;;;;1881494;76;20114;-72
2021/10/22 10:35:12;;;;;;;;;;;9.60;99.90;;;;;;1882855;76;20177;-72
2021/10/22 10:37:41;;;;;;;;;;;9.60;99.90;;;;;;1889424;76;20227;-72
2021/10/22 10:40:25;;;;;;;;;;;9.60;99.90;;;;;;1891481;76;20212;-72
2021/10/22 10:42:53;;;;;;;;;;;9.60;99.90;;;;;;1886770;76;20236;-72
2021/10/22 10:45:25;;;;;;;;;;;9.60;99.90;;;;;;1883938;76;20397;-74
2021/10/22 10:47:55;;;;;;;;;;;9.70;99.90;;;;;;1869145;76;20176;-72
2021/10/22 10:50:24;;;;;;;;;;;9.70;99.90;;;;;;1910216;74;20482;-73
2021/10/22 10:52:51;;;;;;;;;;;9.70;99.90;;;;;;1898398;74;20152;-72
2021/10/22 10:55:32;;;;;;;;;;;9.70;99.90;;;;;;1885511;76;20206;-73
2021/10/22 10:58:06;;;;;;;;;;;9.70;99.90;;;;;;1906410;74;20125;-73
2021/10/22 11:00:40;;;;;;;;;;;9.80;99.90;;;;;;1878009;76;20165;-73
2021/10/22 11:03:10;;;;;;;;;;;9.70;99.90;;;;;;1887536;76;20156;-73
2021/10/22 11:05:48;;;;;;;;;;;9.70;99.90;;;;;;1881936;76;20414;-73
2021/10/22 11:08:25;;;;;;;;;;;9.60;99.90;;;;;;1898215;75;20179;-73
2021/10/22 11:11:14;;;;;;;;;;;9.50;99.90;;;;;;1882916;76;20156;-73
2021/10/22 11:13:53;;;;;;;;;;;9.60;99.90;;;;;;1885587;76;20127;-72
2021/10/22 11:18:53;;;;;;;;;;;9.60;99.90;;;;;;1882851;76;20247;-72
2021/10/22 11:21:23;;;;;;;;;;;9.60;99.90;;;;;;1886312;76;20225;-73
2021/10/22 11:23:53;;;;;;;;;;;9.60;99.90;;;;;;1888099;76;20177;-72
2021/10/22 11:26:20;;;;;;;;;;;9.60;99.90;;;;;;1883887;76;20199;-73
2021/10/22 11:28:47;;;;;;;;;;;9.70;99.90;;;;;;1882378;76;20391;-73
2021/10/22 11:31:15;;;;;;;;;;;9.70;99.90;;;;;;1883074;76;20210;-73
2021/10/22 11:33:44;;;;;;;;;;;9.70;99.90;;;;;;1885728;76;20208;-73
2021/10/22 11:36:12;;;;;;;;;;;9.70;99.90;;;;;;1883788;76;20208;-72
2021/10/22 11:38:43;;;;;;;;;;;9.70;99.90;;;;;;1887913;76;20185;-73
2021/10/22 11:41:14;;;;;;;;;;;9.60;99.90;;;;;;1882799;76;20154;-73
2021/10/22 11:43:42;;;;;;;;;;;9.70;99.90;;;;;;1884033;76;20266;-73
2021/10/22 11:46:19;;;;;;;;;;;9.70;99.90;;;;;;1861959;76;20189;-73
2021/10/22 11:48:51;;;;;;;;;;;9.70;99.90;;;;;;1887273;76;20188;-72
2021/10/22 11:51:18;;;;;;;;;;;9.80;99.90;;;;;;1877329;76;20399;-72
2021/10/22 11:53:45;;;;;;;;;;;9.90;99.90;;;;;;1884120;76;20166;-73
2021/10/22 11:56:12;;;;;;;;;;;9.90;99.90;;;;;;1884178;76;20177;-72
2021/10/22 11:58:41;;;;;;;;;;;9.90;99.90;;;;;;1887073;76;20185;-72
2021/10/22 12:01:08;;;;;;;;;;;10.00;99.90;;;;;;1886063;74;20448;-72
2021/10/22 12:03:39;;;;;;;;;;;9.90;99.90;;;;;;1883711;76;20173;-72
2021/10/22 12:06:19;;;;;;;;;;;10.00;99.90;;;;;;1882496;76;20234;-72
2021/10/22 12:08:47;;;;;;;;;;;10.10;99.90;;;;;;1865345;76;20212;-72
2021/10/22 12:11:14;;;;;;;;;;;10.10;99.90;;;;;;1881731;76;20148;-73
2021/10/22 12:13:44;;;;;;;;;;;10.20;99.90;;;;;;1887444;76;20223;-72
2021/10/22 12:16:18;;;;;;;;;;;10.30;99.90;;;;;;1867050;76;20220;-72
2021/10/22 12:18:52;;;;;;;;;;;10.60;99.90;;;;;;1884768;76;20124;-73
2021/10/22 12:21:20;;;;;;;;;;;10.60;99.90;;;;;;1880852;76;20244;-73
2021/10/22 12:23:48;;;;;;;;;;;10.50;99.90;;;;;;1885701;76;20109;-73
2021/10/22 12:26:19;;;;;;;;;;;10.50;99.90;;;;;;1882597;76;20566;-72
2021/10/22 12:28:47;;;;;;;;;;;10.50;99.90;;;;;;1884888;76;20174;-73
2021/10/22 12:31:15;;;;;;;;;;;10.50;99.90;;;;;;1881374;76;20205;-72
2021/10/22 12:33:43;;;;;;;;;;;10.60;99.90;;;;;;1883587;76;20171;-72
2021/10/22 12:36:16;;;;;;;;;;;10.60;99.90;;;;;;1883681;76;20477;-71
2021/10/22 12:38:43;;;;;;;;;;;10.60;99.90;;;;;;1884471;76;20171;-71
2021/10/22 12:41:13;;;;;;;;;;;10.70;99.90;;;;;;1883829;76;20440;-71
2021/10/22 12:43:40;;;;;;;;;;;10.70;99.90;;;;;;1906500;74;20196;-71
2021/10/22 12:46:19;;;;;;;;;;;10.70;99.90;;;;;;1886183;75;20495;-71
2021/10/22 12:48:47;;;;;;;;;;;10.70;99.90;;;;;;1886307;76;20234;-71
2021/10/22 12:51:15;;;;;;;;;;;10.80;99.90;;;;;;1884003;76;20238;-71
2021/10/22 12:53:43;;;;;;;;;;;10.80;99.90;;;;;;1865298;76;20148;-74
2021/10/22 12:56:15;;;;;;;;;;;11.00;99.90;;;;;;1868729;76;20230;-74
2021/10/22 12:58:43;;;;;;;;;;;11.00;99.90;;;;;;1897243;75;20205;-73
2021/10/22 13:01:14;;;;;;;;;;;10.90;99.90;;;;;;1884086;74;20221;-73
2021/10/22 13:03:43;;;;;;;;;;;10.80;99.90;;;;;;1891347;75;20136;-73
2021/10/22 13:06:19;;;;;;;;;;;10.90;99.90;;;;;;1892987;74;20537;-72
2021/10/22 13:08:52;;;;;;;;;;;10.90;99.90;;;;;;1890791;75;20512;-72
2021/10/22 13:11:31;;;;;;;;;;;10.90;99.90;;;;;;1888007;75;20126;-73
2021/10/22 13:22:03;;;;;;;;;;;11.40;99.90;;;;;;1890881;74;20203;-73
2021/10/22 13:24:27;;;;;;;;;;;11.40;99.90;;;;;;1897954;73;20201;-73
2021/10/22 13:26:54;;;;;;;;;;;11.50;99.90;;;;;;1898701;75;20126;-73
2021/10/22 13:29:21;;;;;;;;;;;11.40;99.90;;;;;;1897674;74;20160;-74
2021/10/22 13:31:52;;;;;;;;;;;11.40;99.90;;;;;;1898111;75;20165;-73
2021/10/22 13:34:19;;;;;;;;;;;11.50;99.90;;;;;;1891802;75;20517;-73
2021/10/22 13:36:46;;;;;;;;;;;11.50;99.90;;;;;;1897079;75;20403;-72
2021/10/22 13:39:13;;;;;;;;;;;11.50;99.90;;;;;;1893303;75;20235;-72
2021/10/22 13:41:40;;;;;;;;;;;11.60;99.90;;;;;;1888834;75;20234;-72
2021/10/22 13:44:07;;;;;;;;;;;11.80;99.90;;;;;;1892384;75;20192;-72
2021/10/22 13:46:35;;;;;;;;;;;11.80;99.90;;;;;;1885823;75;20202;-72
2021/10/22 13:49:02;;;;;;;;;;;11.70;99.90;;;;;;1887381;75;20176;-72
2021/10/22 13:51:29;;;;;;;;;;;11.60;99.90;;;;;;1886137;75;20172;-72
2021/10/22 13:53:57;;;;;;;;;;;11.50;99.90;;;;;;1890772;75;20113;-73
2021/10/22 13:56:23;;;;;;;;;;;11.40;99.90;;;;;;1887584;75;20214;-73
2021/10/22 13:58:50;;;;;;;;;;;11.40;99.90;;;;;;1892177;75;20222;-72
2021/10/22 14:01:17;;;;;;;;;;;11.30;99.90;;;;;;1896834;75;20514;-73
2021/10/22 14:03:44;;;;;;;;;;;11.40;99.90;;;;;;1893724;75;20221;-72
2021/10/22 14:06:12;;;;;;;;;;;11.40;99.90;;;;;;1897011;74;20189;-72
2021/10/22 14:08:39;;;;;;;;;;;11.30;99.90;;;;;;1886414;75;20173;-71
2021/10/22 14:11:12;;;;;;;;;;;11.30;99.90;;;;;;1894108;75;20170;-72
2021/10/22 14:13:42;;;;;;;;;;;11.30;99.90;;;;;;1892578;75;20467;-73
2021/10/22 14:16:19;;;;;;;;;;;11.40;99.90;;;;;;1886495;75;20400;-73
2021/10/22 14:24:25;;;;;;;;;;;11.50;99.90;;;;;;1895603;75;20243;-72
2021/10/22 14:29:22;;;;;;;;;;;11.50;99.90;;;;;;1893946;75;20164;-72
2021/10/22 14:31:49;;;;;;;;;;;11.50;99.90;;;;;;1890973;75;20201;-73
2021/10/22 14:34:16;;;;;;;;;;;11.50;99.90;;;;;;1893812;75;20213;-73
2021/10/22 14:36:43;;;;;;;;;;;11.50;99.90;;;;;;1892237;75;20158;-73
2021/10/22 14:39:10;;;;;;;;;;;11.60;99.90;;;;;;1892898;75;20154;-72
2021/10/22 14:41:38;;;;;;;;;;;11.60;99.90;;;;;;1893930;75;20171;-73
2021/10/22 14:44:07;;;;;;;;;;;11.60;99.90;;;;;;1891115;75;20171;-72
2021/10/22 14:46:47;;;;;;;;;;;11.60;99.90;;;;;;1888184;75;20117;-72
2021/10/22 14:49:06;;;;;;;;;;;11.60;99.90;;;;;;1884440;75;20295;-73
2021/10/22 14:54:16;;;;;;;;;;;11.50;99.90;;;;;;1892424;75;20177;-72
2021/10/22 14:56:39;;;;;;;;;;;11.40;99.90;;;;;;1892696;75;20519;-72
2021/10/22 14:59:09;;;;;;;;;;;11.40;99.90;;;;;;1891152;75;20126;-72